createdAt,value
2023-07-11T00:00:53.969Z,17.28
2023-07-11T00:03:21.059Z,17.25
2023-07-11T00:06:13.486Z,17.32
2023-07-11T00:08:40.108Z,17.25
2023-07-11T00:11:11.750Z,17.25
2023-07-11T00:13:39.511Z,17.16
2023-07-11T00:16:10.698Z,17.00
2023-07-11T00:18:37.654Z,17.16
2023-07-11T00:21:05.318Z,17.13
2023-07-11T00:23:32.754Z,17.10
2023-07-11T00:25:59.315Z,16.99
2023-07-11T00:28:25.843Z,17.01
2023-07-11T00:30:52.682Z,16.99
2023-07-11T00:33:19.833Z,16.98
2023-07-11T00:35:50.898Z,16.96
2023-07-11T00:38:17.348Z,16.90
2023-07-11T00:40:46.009Z,16.90
2023-07-11T00:43:15.662Z,16.70
2023-07-11T00:46:00.899Z,16.94
2023-07-11T00:48:27.810Z,16.85
2023-07-11T00:50:57.248Z,16.74
2023-07-11T00:53:27.012Z,16.87
2023-07-11T00:55:55.084Z,16.85
2023-07-11T00:58:25.642Z,16.88
2023-07-11T01:00:53.371Z,16.52
2023-07-11T01:03:23.435Z,16.82
2023-07-11T01:05:50.214Z,16.61
2023-07-11T01:08:17.102Z,16.78
2023-07-11T01:10:43.662Z,16.64
2023-07-11T01:13:10.776Z,16.72
2023-07-11T01:15:37.251Z,16.55
2023-07-11T01:18:03.909Z,16.68
2023-07-11T01:20:30.660Z,16.50
2023-07-11T01:22:58.440Z,16.60
2023-07-11T01:25:25.130Z,16.60
2023-07-11T01:27:54.638Z,16.60
2023-07-11T01:30:23.270Z,16.59
2023-07-11T01:32:50.220Z,16.52
2023-07-11T01:35:17.176Z,16.48
2023-07-11T01:37:43.756Z,16.29
2023-07-11T01:40:10.636Z,16.51
2023-07-11T01:42:37.877Z,16.50
2023-07-11T01:45:04.793Z,16.44
2023-07-11T01:47:32.110Z,16.49
2023-07-11T01:49:58.681Z,16.48
2023-07-11T01:52:25.441Z,16.46
2023-07-11T01:54:52.543Z,16.21
2023-07-11T01:57:19.803Z,16.43
2023-07-11T01:59:46.412Z,16.41
2023-07-11T02:02:13.467Z,16.29
2023-07-11T02:04:40.679Z,16.42
2023-07-11T02:07:08.067Z,16.43
2023-07-11T02:09:35.684Z,16.40
2023-07-11T02:12:02.784Z,16.35
2023-07-11T02:14:29.289Z,16.37
2023-07-11T02:16:56.130Z,16.33
2023-07-11T02:19:24.842Z,16.35
2023-07-11T02:21:51.615Z,16.33
2023-07-11T02:24:19.058Z,16.31
2023-07-11T02:26:46.283Z,16.30
2023-07-11T02:29:13.259Z,16.28
2023-07-11T02:31:40.118Z,16.18
2023-07-11T02:34:06.907Z,16.25
2023-07-11T02:36:33.870Z,16.04
2023-07-11T02:39:00.809Z,16.19
2023-07-11T02:41:27.434Z,16.21
2023-07-11T02:43:54.561Z,16.09
2023-07-11T02:46:21.167Z,16.17
2023-07-11T02:48:47.827Z,15.97
2023-07-11T02:51:14.269Z,16.17
2023-07-11T02:53:40.881Z,15.94
2023-07-11T02:56:07.540Z,16.19
2023-07-11T02:58:34.446Z,15.95
2023-07-11T03:01:02.754Z,16.08
2023-07-11T03:03:29.645Z,16.19
2023-07-11T03:05:57.671Z,16.05
2023-07-11T03:08:24.961Z,16.17
2023-07-11T03:10:51.690Z,16.19
2023-07-11T03:13:19.571Z,16.17
2023-07-11T03:15:46.164Z,16.21
2023-07-11T03:18:13.934Z,16.28
2023-07-11T03:20:43.021Z,16.30
2023-07-11T03:23:11.915Z,16.32
2023-07-11T03:25:38.891Z,16.33
2023-07-11T03:28:05.959Z,16.35
2023-07-11T03:30:33.854Z,16.37
2023-07-11T03:33:00.568Z,16.37
2023-07-11T03:35:27.297Z,16.44
2023-07-11T03:37:53.781Z,16.46
2023-07-11T03:40:20.243Z,16.48
2023-07-11T03:42:47.055Z,16.49
2023-07-11T03:45:13.630Z,16.18
2023-07-11T03:47:40.063Z,16.67
2023-07-11T03:50:06.899Z,16.65
2023-07-11T03:52:33.537Z,16.80
2023-07-11T03:55:00.002Z,16.86
2023-07-11T03:57:26.480Z,16.98
2023-07-11T03:59:53.621Z,17.05
2023-07-11T04:02:20.116Z,17.05
2023-07-11T04:04:46.574Z,17.27
2023-07-11T04:07:13.104Z,17.30
2023-07-11T04:09:43.797Z,17.49
2023-07-11T04:12:11.557Z,17.42
2023-07-11T04:14:38.583Z,17.71
2023-07-11T04:17:05.710Z,17.66
2023-07-11T04:19:32.308Z,17.53
2023-07-11T04:21:58.892Z,17.98
2023-07-11T04:24:25.734Z,18.11
2023-07-11T04:26:52.221Z,18.23
2023-07-11T04:29:18.824Z,18.28
2023-07-11T04:31:45.481Z,18.38
2023-07-11T04:34:11.950Z,18.43
2023-07-11T04:36:38.383Z,18.59
2023-07-11T04:39:04.906Z,18.66
2023-07-11T04:41:31.511Z,18.62
2023-07-11T04:43:57.929Z,18.83
2023-07-11T04:46:24.917Z,18.65
2023-07-11T04:48:51.588Z,18.96
2023-07-11T04:51:18.418Z,19.06
2023-07-11T04:53:45.109Z,19.16
2023-07-11T04:56:12.106Z,19.23
2023-07-11T04:58:39.756Z,19.28
2023-07-11T05:01:12.302Z,19.41
2023-07-11T05:03:39.842Z,19.51
2023-07-11T05:06:07.624Z,19.59
2023-07-11T05:08:34.724Z,19.67
2023-07-11T05:11:06.518Z,19.72
2023-07-11T05:13:34.212Z,19.83
2023-07-11T05:16:02.600Z,19.93
2023-07-11T05:18:29.599Z,19.99
2023-07-11T05:20:57.785Z,20.15
2023-07-11T05:23:26.139Z,20.22
2023-07-11T05:25:53.003Z,20.29
2023-07-11T05:28:19.550Z,20.25
2023-07-11T05:30:46.036Z,20.51
2023-07-11T05:33:13.645Z,20.60
2023-07-11T05:35:48.043Z,20.64
2023-07-11T05:38:15.619Z,20.73
2023-07-11T05:40:42.950Z,20.89
2023-07-11T05:43:09.972Z,20.91
2023-07-11T05:45:36.388Z,21.06
2023-07-11T05:48:02.961Z,21.14
2023-07-11T05:50:29.499Z,21.20
2023-07-11T05:52:56.039Z,21.33
2023-07-11T05:55:23.063Z,21.42
2023-07-11T05:57:49.554Z,21.32
2023-07-11T06:00:16.483Z,21.60
2023-07-11T06:02:43.249Z,21.68
2023-07-11T06:05:09.997Z,21.56
2023-07-11T06:07:36.502Z,21.85
2023-07-11T06:10:03.726Z,21.98
2023-07-11T06:12:30.168Z,21.94
2023-07-11T06:14:56.693Z,22.24
2023-07-11T06:17:23.204Z,22.20
2023-07-11T06:19:49.685Z,22.40
2023-07-11T06:22:16.248Z,22.59
2023-07-11T06:24:42.874Z,22.64
2023-07-11T06:27:09.347Z,22.56
2023-07-11T06:29:36.357Z,22.87
2023-07-11T06:32:03.097Z,23.05
2023-07-11T06:34:29.651Z,22.92
2023-07-11T06:36:57.241Z,23.12
2023-07-11T06:39:26.938Z,23.22
2023-07-11T06:41:53.368Z,23.46
2023-07-11T06:44:19.930Z,23.27
2023-07-11T06:46:46.429Z,23.62
2023-07-11T06:49:13.014Z,23.78
2023-07-11T06:51:39.668Z,23.52
2023-07-11T06:54:06.130Z,24.10
2023-07-11T06:56:34.347Z,24.14
2023-07-11T06:59:00.933Z,24.07
2023-07-11T07:01:37.641Z,24.44
2023-07-11T07:04:06.124Z,24.42
2023-07-11T07:06:33.138Z,24.73
2023-07-11T07:09:01.335Z,24.88
2023-07-11T07:11:27.910Z,24.90
2023-07-11T07:14:04.259Z,24.77
2023-07-11T07:16:33.575Z,24.90
2023-07-11T07:19:00.435Z,24.94
2023-07-11T07:21:26.975Z,25.06
2023-07-11T07:23:53.500Z,25.11
2023-07-11T07:26:19.989Z,25.20
2023-07-11T07:28:46.765Z,25.27
2023-07-11T07:31:13.282Z,25.10
2023-07-11T07:33:39.889Z,25.42
2023-07-11T07:36:09.939Z,25.48
2023-07-11T07:38:36.617Z,25.55
2023-07-11T07:41:05.729Z,25.63
2023-07-11T07:43:33.928Z,25.58
2023-07-11T07:46:02.238Z,25.81
2023-07-11T07:48:29.007Z,25.87
2023-07-11T07:51:05.362Z,25.97
2023-07-11T07:53:32.774Z,26.06
2023-07-11T07:56:24.794Z,26.17
2023-07-11T07:58:54.442Z,26.17
2023-07-11T08:01:21.911Z,26.14
2023-07-11T08:03:48.981Z,26.16
2023-07-11T08:06:20.710Z,26.39
2023-07-11T08:08:48.825Z,26.68
2023-07-11T08:11:17.426Z,26.69
2023-07-11T08:16:28.896Z,27.10
2023-07-11T08:18:56.844Z,27.21
2023-07-11T08:21:24.295Z,27.33
2023-07-11T08:23:50.826Z,27.43
2023-07-11T08:26:17.364Z,27.50
2023-07-11T08:28:43.959Z,27.59
2023-07-11T08:31:11.232Z,27.63
2023-07-11T08:33:38.052Z,27.67
2023-07-11T08:36:04.660Z,27.78
2023-07-11T08:38:31.184Z,27.83
2023-07-11T08:40:57.778Z,27.79
2023-07-11T08:43:31.167Z,28.04
2023-07-11T08:46:13.264Z,28.13
2023-07-11T08:48:51.451Z,28.23
2023-07-11T08:51:35.298Z,28.25
2023-07-11T08:54:24.176Z,28.39
2023-07-11T08:56:51.968Z,28.47
2023-07-11T08:59:26.519Z,28.65
2023-07-11T09:02:13.205Z,28.68
2023-07-11T09:04:49.440Z,28.82
2023-07-11T09:07:37.363Z,29.02
2023-07-11T09:10:38.708Z,29.10
2023-07-11T09:13:46.244Z,29.22
2023-07-11T09:16:28.190Z,29.30
2023-07-11T09:19:13.026Z,29.28
2023-07-11T09:21:51.309Z,29.30
2023-07-11T09:24:32.412Z,29.42
2023-07-11T09:27:28.437Z,29.62
2023-07-11T09:29:59.421Z,29.57
2023-07-11T09:32:35.044Z,29.79
2023-07-11T09:35:35.974Z,30.26
2023-07-11T09:38:08.710Z,30.19
2023-07-11T09:40:43.365Z,30.52
2023-07-11T09:43:10.542Z,30.66
2023-07-11T09:45:42.776Z,30.78
2023-07-11T09:48:17.872Z,30.95
2023-07-11T09:51:14.338Z,31.04
2023-07-11T09:53:47.808Z,31.25
2023-07-11T09:56:17.941Z,31.16
2023-07-11T09:58:54.043Z,31.66
2023-07-11T10:01:34.837Z,31.89
2023-07-11T10:04:02.461Z,31.92
2023-07-11T10:09:16.295Z,32.28
2023-07-11T10:11:43.156Z,32.27
2023-07-11T10:14:20.735Z,32.35
2023-07-11T10:16:48.889Z,32.37
2023-07-11T10:19:17.481Z,32.43
2023-07-11T10:21:47.647Z,32.45
2023-07-11T10:24:25.589Z,32.67
2023-07-11T10:26:59.775Z,32.78
2023-07-11T10:29:30.239Z,32.80
2023-07-11T10:31:57.003Z,32.81
2023-07-11T10:34:30.824Z,32.83
2023-07-11T10:37:14.439Z,32.80
2023-07-11T10:39:46.810Z,32.60
2023-07-11T10:42:16.254Z,32.96
2023-07-11T10:44:45.252Z,33.21
2023-07-11T10:47:13.055Z,32.65
2023-07-11T10:49:46.164Z,32.82
2023-07-11T10:52:22.686Z,32.87
2023-07-11T10:55:06.922Z,32.88
2023-07-11T10:57:48.246Z,32.87
2023-07-11T11:00:17.536Z,32.84
2023-07-11T11:03:09.381Z,33.05
2023-07-11T11:05:57.789Z,33.13
2023-07-11T11:08:34.729Z,33.27
2023-07-11T11:11:19.204Z,33.34
2023-07-11T11:13:51.752Z,33.42
2023-07-11T11:16:30.456Z,33.32
2023-07-11T11:19:31.052Z,33.70
2023-07-11T11:22:03.780Z,33.81
2023-07-11T11:24:45.495Z,33.93
2023-07-11T11:27:33.650Z,34.14
2023-07-11T11:30:29.860Z,34.21
2023-07-11T11:33:14.449Z,34.18
2023-07-11T11:35:47.414Z,34.18
2023-07-11T11:38:43.144Z,34.19
2023-07-11T11:41:17.255Z,34.06
2023-07-11T11:51:24.965Z,33.70
2023-07-11T11:54:17.988Z,34.02
2023-07-11T11:56:48.790Z,34.03
2023-07-11T11:59:22.372Z,33.76
2023-07-11T12:01:57.638Z,34.20
2023-07-11T12:04:30.313Z,34.39
2023-07-11T12:07:03.202Z,34.50
2023-07-11T12:09:54.301Z,34.57
2023-07-11T12:12:47.324Z,34.72
2023-07-11T12:15:13.737Z,34.80
2023-07-11T12:17:40.336Z,34.87
2023-07-11T12:20:06.929Z,34.92
2023-07-11T12:22:53.326Z,35.20
2023-07-11T12:25:25.105Z,35.15
2023-07-11T12:27:54.822Z,35.07
2023-07-11T12:30:38.304Z,35.19
2023-07-11T12:33:23.252Z,35.19
2023-07-11T12:36:02.342Z,34.95
2023-07-11T12:38:46.369Z,35.11
2023-07-11T12:41:42.906Z,35.14
2023-07-11T12:44:14.454Z,35.16
2023-07-11T12:46:44.153Z,35.21
2023-07-11T12:49:20.581Z,35.29
2023-07-11T12:51:47.259Z,35.11
2023-07-11T12:54:19.308Z,35.57
2023-07-11T12:56:51.406Z,35.60
2023-07-11T12:59:20.927Z,35.72
2023-07-11T13:01:50.473Z,35.69
2023-07-11T13:04:36.958Z,35.91
2023-07-11T13:07:25.885Z,35.99
2023-07-11T13:09:54.829Z,35.81
2023-07-11T13:12:24.525Z,35.94
2023-07-11T13:14:52.317Z,35.97
2023-07-11T13:17:24.860Z,35.78
2023-07-11T13:20:01.588Z,36.04
2023-07-11T13:22:28.921Z,35.74
2023-07-11T13:25:00.157Z,36.19
2023-07-11T13:27:29.592Z,36.14
2023-07-11T13:29:56.148Z,36.24
2023-07-11T13:32:29.196Z,36.26
2023-07-11T13:35:02.260Z,36.20
2023-07-11T13:37:38.628Z,36.00
2023-07-11T13:40:05.876Z,35.49
2023-07-11T13:42:36.715Z,35.67
2023-07-11T13:45:18.382Z,35.53
2023-07-11T13:47:46.701Z,35.29
2023-07-11T13:50:16.359Z,35.35
2023-07-11T13:52:53.461Z,35.20
2023-07-11T13:55:39.986Z,35.30
2023-07-11T13:58:08.775Z,35.16
2023-07-11T14:00:52.554Z,35.22
2023-07-11T14:03:25.644Z,35.18
2023-07-11T14:05:56.785Z,34.83
2023-07-11T14:08:26.675Z,35.18
2023-07-11T14:10:53.664Z,34.91
2023-07-11T14:13:24.481Z,35.20
2023-07-11T14:15:55.839Z,35.06
2023-07-11T14:18:22.603Z,35.11
2023-07-11T14:20:49.337Z,35.00
2023-07-11T14:23:24.881Z,35.04
2023-07-11T14:25:52.145Z,34.80
2023-07-11T14:28:19.748Z,34.93
2023-07-11T14:30:46.918Z,34.79
2023-07-11T14:33:19.065Z,34.93
2023-07-11T14:35:46.618Z,34.77
2023-07-11T14:38:15.345Z,34.76
2023-07-11T14:40:42.522Z,34.88
2023-07-11T14:43:20.433Z,35.02
2023-07-11T14:45:46.865Z,34.80
2023-07-11T14:48:19.136Z,35.05
2023-07-11T14:50:48.065Z,34.99
2023-07-11T14:53:27.015Z,35.08
2023-07-11T14:58:22.762Z,35.15
2023-07-11T15:00:49.338Z,34.26
2023-07-11T15:03:25.251Z,34.62
2023-07-11T15:06:52.226Z,34.54
2023-07-11T15:16:26.386Z,34.69
2023-07-11T15:18:52.929Z,34.36
2023-07-11T15:21:19.436Z,34.28
2023-07-11T15:23:46.043Z,34.35
2023-07-11T15:26:12.516Z,34.29
2023-07-11T15:28:38.953Z,34.28
2023-07-11T15:31:06.314Z,34.21
2023-07-11T15:33:42.466Z,34.23
2023-07-11T15:36:10.143Z,34.12
2023-07-11T15:38:36.838Z,34.04
2023-07-11T15:41:08.324Z,34.04
2023-07-11T15:43:41.836Z,33.95
2023-07-11T15:46:13.823Z,33.74
2023-07-11T15:48:40.490Z,33.80
2023-07-11T15:51:07.790Z,33.74
2023-07-11T15:53:34.604Z,33.60
2023-07-11T15:56:01.234Z,33.50
2023-07-11T15:58:28.065Z,33.41
2023-07-11T16:00:55.973Z,33.38
2023-07-11T16:03:25.289Z,33.10
2023-07-11T16:05:53.926Z,33.26
2023-07-11T16:08:29.755Z,33.24
2023-07-11T16:11:01.388Z,33.12
2023-07-11T16:13:30.471Z,33.03
2023-07-11T16:16:00.294Z,33.03
2023-07-11T16:18:29.706Z,32.89
2023-07-11T16:20:56.515Z,33.10
2023-07-11T16:23:25.479Z,33.16
2023-07-11T16:25:53.103Z,33.23
2023-07-11T16:28:38.034Z,33.34
2023-07-11T16:31:06.018Z,33.28
2023-07-11T16:33:33.301Z,33.22
2023-07-11T16:36:01.004Z,33.24
2023-07-11T16:38:31.253Z,33.25
2023-07-11T16:40:59.628Z,33.23
2023-07-11T16:43:27.233Z,33.14
2023-07-11T16:45:53.923Z,33.10
2023-07-11T16:48:25.850Z,32.94
2023-07-11T16:50:55.128Z,33.12
2023-07-11T16:53:26.509Z,33.12
2023-07-11T16:55:55.485Z,33.09
2023-07-11T16:58:38.519Z,33.09
2023-07-11T17:01:05.886Z,33.01
2023-07-11T17:03:32.614Z,32.90
2023-07-11T17:05:59.264Z,32.89
2023-07-11T17:08:30.018Z,32.87
2023-07-11T17:10:56.502Z,32.83
2023-07-11T17:13:24.925Z,32.85
2023-07-11T17:15:51.926Z,32.82
2023-07-11T17:18:19.637Z,32.88
2023-07-11T17:20:47.216Z,32.87
2023-07-11T17:23:17.371Z,32.86
2023-07-11T17:25:45.039Z,32.85
2023-07-11T17:28:21.002Z,32.86
2023-07-11T17:30:48.652Z,32.78
2023-07-11T17:33:18.114Z,32.72
2023-07-11T17:35:45.285Z,32.65
2023-07-11T17:38:18.508Z,32.66
2023-07-11T17:40:45.376Z,32.54
2023-07-11T17:43:22.289Z,32.45
2023-07-11T17:48:27.341Z,32.13
2023-07-11T17:50:56.753Z,32.26
2023-07-11T17:53:24.020Z,32.21
2023-07-11T17:55:50.772Z,31.89
2023-07-11T17:58:43.577Z,32.16
2023-07-11T18:01:22.020Z,31.98
2023-07-11T18:03:49.435Z,31.84
2023-07-11T18:06:19.671Z,31.70
2023-07-11T18:08:46.351Z,31.60
2023-07-11T18:11:15.734Z,31.46
2023-07-11T18:13:43.541Z,31.40
2023-07-11T18:16:13.392Z,31.21
2023-07-11T18:18:40.086Z,30.84
2023-07-11T18:21:09.898Z,31.05
2023-07-11T18:23:36.550Z,30.57
2023-07-11T18:26:04.291Z,30.84
2023-07-11T18:28:30.738Z,30.79
2023-07-11T18:30:57.302Z,30.66
2023-07-11T18:33:23.875Z,30.67
2023-07-11T18:35:50.608Z,30.57
2023-07-11T18:38:20.489Z,30.61
2023-07-11T18:40:48.114Z,30.48
2023-07-11T18:43:14.966Z,30.36
2023-07-11T18:45:44.345Z,30.58
2023-07-11T18:48:12.387Z,30.55
2023-07-11T18:50:40.001Z,30.50
2023-07-11T18:53:06.916Z,30.48
2023-07-11T18:55:33.661Z,30.33
2023-07-11T18:58:00.266Z,30.37
2023-07-11T19:00:36.413Z,30.29
2023-07-11T19:03:06.774Z,30.20
2023-07-11T19:05:33.704Z,29.98
2023-07-11T19:08:00.179Z,29.84
2023-07-11T19:10:29.552Z,29.68
2023-07-11T19:12:57.085Z,29.40
2023-07-11T19:15:26.049Z,29.12
2023-07-11T19:18:00.204Z,28.97
2023-07-11T19:20:32.436Z,28.67
2023-07-11T19:23:05.952Z,28.31
2023-07-11T19:25:35.182Z,28.26
2023-07-11T19:28:26.981Z,28.13
2023-07-11T19:30:55.557Z,27.83
2023-07-11T19:33:22.197Z,27.64
2023-07-11T19:35:55.995Z,27.51
2023-07-11T19:38:25.506Z,27.15
2023-07-11T19:40:53.036Z,27.15
2023-07-11T19:43:19.889Z,27.00
2023-07-11T19:45:52.050Z,26.88
2023-07-11T19:48:21.151Z,26.71
2023-07-11T19:50:52.789Z,26.60
2023-07-11T19:53:21.294Z,26.44
2023-07-11T19:55:50.739Z,26.31
2023-07-11T19:58:19.923Z,26.20
2023-07-11T20:00:48.566Z,26.14
2023-07-11T20:03:16.549Z,26.03
2023-07-11T20:05:45.691Z,25.93
2023-07-11T20:08:26.537Z,25.90
2023-07-11T20:10:59.240Z,25.82
2023-07-11T20:13:26.957Z,25.71
2023-07-11T20:15:56.489Z,25.65
2023-07-11T20:18:26.267Z,25.59
2023-07-11T20:20:54.112Z,25.71
2023-07-11T20:23:21.475Z,25.49
2023-07-11T20:25:53.197Z,25.42
2023-07-11T20:28:21.667Z,25.35
2023-07-11T20:30:51.150Z,25.30
2023-07-11T20:33:18.004Z,25.24
2023-07-11T20:35:46.650Z,25.17
2023-07-11T20:38:15.125Z,25.11
2023-07-11T20:40:43.634Z,25.03
2023-07-11T20:43:11.719Z,25.00
2023-07-11T20:45:46.774Z,25.00
2023-07-11T20:48:21.840Z,24.86
2023-07-11T20:50:49.484Z,24.58
2023-07-11T20:53:16.257Z,24.77
2023-07-11T20:55:48.181Z,24.71
2023-07-11T20:58:17.061Z,24.43
2023-07-11T21:00:45.057Z,24.07
2023-07-11T21:03:17.632Z,24.53
2023-07-11T21:05:46.524Z,24.44
2023-07-11T21:08:25.573Z,24.42
2023-07-11T21:10:53.301Z,24.14
2023-07-11T21:13:19.876Z,24.11
2023-07-11T21:15:46.604Z,24.26
2023-07-11T21:18:14.852Z,24.17
2023-07-11T21:20:47.138Z,24.15
2023-07-11T21:23:14.226Z,24.10
2023-07-11T21:25:43.070Z,24.04
2023-07-11T21:28:32.527Z,24.00
2023-07-11T21:31:03.577Z,23.92
2023-07-11T21:33:31.455Z,23.82
2023-07-11T21:36:00.713Z,23.77
2023-07-11T21:38:29.804Z,23.72
2023-07-11T21:40:59.389Z,23.66
2023-07-11T21:43:26.775Z,23.60
2023-07-11T21:45:56.837Z,23.53
2023-07-11T21:48:23.303Z,23.65
2023-07-11T21:50:55.085Z,23.45
2023-07-11T21:53:25.074Z,23.40
2023-07-11T21:55:56.976Z,23.32
2023-07-11T21:58:26.100Z,23.32
2023-07-11T22:00:53.314Z,23.28
2023-07-11T22:03:23.352Z,23.29
2023-07-11T22:05:50.777Z,23.44
2023-07-11T22:08:22.478Z,23.35
2023-07-11T22:10:49.595Z,23.33
2023-07-11T22:13:19.283Z,23.17
2023-07-11T22:15:46.097Z,23.34
2023-07-11T22:18:21.831Z,23.43
2023-07-11T22:20:49.088Z,23.46
2023-07-11T22:23:15.884Z,23.48
2023-07-11T22:25:42.377Z,23.52
2023-07-11T22:28:14.750Z,23.54
2023-07-11T22:30:44.027Z,23.52
2023-07-11T22:33:12.692Z,23.37
2023-07-11T22:35:39.339Z,23.45
2023-07-11T22:38:06.883Z,23.61
2023-07-11T22:40:47.675Z,23.45
2023-07-11T22:43:20.143Z,23.60
2023-07-11T22:45:52.650Z,23.58
2023-07-11T22:48:22.283Z,23.54
2023-07-11T22:50:51.214Z,23.57
2023-07-11T22:53:21.265Z,23.53
2023-07-11T22:55:55.079Z,23.70
2023-07-11T22:58:29.917Z,23.56
2023-07-11T23:00:58.089Z,23.52
2023-07-11T23:03:25.712Z,23.48
2023-07-11T23:05:56.538Z,23.48
2023-07-11T23:08:26.205Z,23.48
2023-07-11T23:10:52.974Z,23.22
2023-07-11T23:13:19.512Z,23.44
2023-07-11T23:15:51.820Z,23.43
2023-07-11T23:18:21.155Z,23.39
2023-07-11T23:21:05.909Z,23.42
2023-07-11T23:23:32.515Z,23.35
2023-07-11T23:26:01.171Z,23.22
2023-07-11T23:28:33.309Z,23.31
2023-07-11T23:31:03.420Z,23.19
2023-07-11T23:33:30.348Z,23.16
2023-07-11T23:35:59.605Z,23.24
2023-07-11T23:38:27.237Z,23.21
2023-07-11T23:40:55.773Z,23.23
2023-07-11T23:43:39.932Z,23.22
2023-07-11T23:46:28.960Z,23.28
2023-07-11T23:48:56.245Z,23.26
2023-07-11T23:51:25.115Z,23.26
2023-07-11T23:53:52.244Z,23.27
2023-07-11T23:56:26.199Z,23.29
2023-07-11T23:58:53.231Z,23.18
